Mont-Saint-Guibert, Belgium
Current Conditions -  °F | °C
As of 10:25 PM on Thursday 23 Oct 2014 (Local Time) from EBBE Reporting Station
Overcast Overcast  
Wind Chill: 52°   Ceiling: 3600
Heat Index: 52°   Visibility: 6mi
Dew Point: 48°   Wind: 12mph
Humidity: 88%   Direction: 190°S
Pressure: 30.21"   Gusts: NA
Location:  50.63°N, 4.61°E
Report Text: EBBE 232025Z AUTO 19010KT 9999 OVC036/// 11/09 Q1023 BLU
Loading
Personal Weather Stations






























Interactive Weather Map
Tropical Storm Tracking
New forecast layout! Learn more

10-Day Weather Forecast

Advertisements
Track Severe Weather on mobile